sensor_id;sensor_type;location;lat;lon;timestamp;temperature;humidity
40996;DHT22;26723;57.478;12.066;2024-02-23T00:00:22;7.20;99.90
40996;DHT22;26723;57.478;12.066;2024-02-23T00:03:30;7.20;99.90
40996;DHT22;26723;57.478;12.066;2024-02-23T00:06:38;7.20;99.90
40996;DHT22;26723;57.478;12.066;2024-02-23T00:09:46;7.20;99.90
40996;DHT22;26723;57.478;12.066;2024-02-23T00:12:56;7.10;99.90
40996;DHT22;26723;57.478;12.066;2024-02-23T00:16:06;7.10;99.90
40996;DHT22;26723;57.478;12.066;2024-02-23T00:19:14;7.20;99.90
40996;DHT22;26723;57.478;12.066;2024-02-23T00:22:25;7.20;99.90
40996;DHT22;26723;57.478;12.066;2024-02-23T00:25:33;7.20;99.90
40996;DHT22;26723;57.478;12.066;2024-02-23T00:28:41;7.20;99.90
40996;DHT22;26723;57.478;12.066;2024-02-23T00:31:51;7.20;99.90
40996;DHT22;26723;57.478;12.066;2024-02-23T00:34:59;7.30;99.90
40996;DHT22;26723;57.478;12.066;2024-02-23T00:38:08;7.30;99.90
40996;DHT22;26723;57.478;12.066;2024-02-23T00:41:16;7.20;99.90
40996;DHT22;26723;57.478;12.066;2024-02-23T00:44:25;7.30;99.90
40996;DHT22;26723;57.478;12.066;2024-02-23T00:47:34;7.30;99.90
40996;DHT22;26723;57.478;12.066;2024-02-23T00:50:44;7.30;99.90
40996;DHT22;26723;57.478;12.066;2024-02-23T00:53:52;7.40;99.90
40996;DHT22;26723;57.478;12.066;2024-02-23T00:57:00;7.40;99.90
40996;DHT22;26723;57.478;12.066;2024-02-23T01:00:09;7.40;99.90
40996;DHT22;26723;57.478;12.066;2024-02-23T01:03:19;7.40;99.90
40996;DHT22;26723;57.478;12.066;2024-02-23T01:06:27;7.40;99.90
40996;DHT22;26723;57.478;12.066;2024-02-23T01:09:36;7.40;99.90
40996;DHT22;26723;57.478;12.066;2024-02-23T01:12:44;7.40;99.90
40996;DHT22;26723;57.478;12.066;2024-02-23T01:15:53;7.40;99.90
40996;DHT22;26723;57.478;12.066;2024-02-23T01:19:03;7.40;99.90
40996;DHT22;26723;57.478;12.066;2024-02-23T01:22:11;7.40;99.90
40996;DHT22;26723;57.478;12.066;2024-02-23T01:25:21;7.40;99.90
40996;DHT22;26723;57.478;12.066;2024-02-23T01:28:29;7.40;99.90
40996;DHT22;26723;57.478;12.066;2024-02-23T01:31:38;7.50;99.90
40996;DHT22;26723;57.478;12.066;2024-02-23T01:34:47;7.40;99.90
40996;DHT22;26723;57.478;12.066;2024-02-23T01:37:56;7.50;99.90
40996;DHT22;26723;57.478;12.066;2024-02-23T01:41:04;7.50;99.90
40996;DHT22;26723;57.478;12.066;2024-02-23T01:44:13;7.50;99.90
40996;DHT22;26723;57.478;12.066;2024-02-23T01:47:22;7.50;99.90
40996;DHT22;26723;57.478;12.066;2024-02-23T01:50:32;7.50;99.90
40996;DHT22;26723;57.478;12.066;2024-02-23T01:53:41;7.50;99.90
40996;DHT22;26723;57.478;12.066;2024-02-23T01:56:49;7.60;99.90
40996;DHT22;26723;57.478;12.066;2024-02-23T01:59:57;7.60;99.90
40996;DHT22;26723;57.478;12.066;2024-02-23T02:03:08;7.60;99.90
40996;DHT22;26723;57.478;12.066;2024-02-23T02:06:20;7.60;99.90
40996;DHT22;26723;57.478;12.066;2024-02-23T02:09:28;7.60;99.90
40996;DHT22;26723;57.478;12.066;2024-02-23T02:12:37;7.60;99.90
40996;DHT22;26723;57.478;12.066;2024-02-23T02:15:48;7.60;99.90
40996;DHT22;26723;57.478;12.066;2024-02-23T02:18:56;7.60;99.90
40996;DHT22;26723;57.478;12.066;2024-02-23T02:22:06;7.60;99.90
40996;DHT22;26723;57.478;12.066;2024-02-23T02:25:14;7.70;99.90
40996;DHT22;26723;57.478;12.066;2024-02-23T02:28:24;7.70;99.90
40996;DHT22;26723;57.478;12.066;2024-02-23T02:31:33;7.70;99.90
40996;DHT22;26723;57.478;12.066;2024-02-23T02:34:44;7.80;99.90
40996;DHT22;26723;57.478;12.066;2024-02-23T02:37:54;7.80;99.90
40996;DHT22;26723;57.478;12.066;2024-02-23T02:41:03;7.70;99.90
40996;DHT22;26723;57.478;12.066;2024-02-23T02:44:11;7.80;99.90
40996;DHT22;26723;57.478;12.066;2024-02-23T02:47:20;7.90;99.90
40996;DHT22;26723;57.478;12.066;2024-02-23T02:50:29;7.90;99.90
40996;DHT22;26723;57.478;12.066;2024-02-23T02:53:38;7.90;99.90
40996;DHT22;26723;57.478;12.066;2024-02-23T02:56:47;8.00;99.90
40996;DHT22;26723;57.478;12.066;2024-02-23T02:59:57;8.10;99.90
40996;DHT22;26723;57.478;12.066;2024-02-23T03:03:06;8.20;99.90
40996;DHT22;26723;57.478;12.066;2024-02-23T03:06:14;8.40;99.90
40996;DHT22;26723;57.478;12.066;2024-02-23T03:09:24;8.50;99.90
40996;DHT22;26723;57.478;12.066;2024-02-23T03:12:32;8.50;99.90
40996;DHT22;26723;57.478;12.066;2024-02-23T03:15:40;8.50;99.90
40996;DHT22;26723;57.478;12.066;2024-02-23T03:18:48;8.50;99.90
40996;DHT22;26723;57.478;12.066;2024-02-23T03:21:57;8.60;99.90
40996;DHT22;26723;57.478;12.066;2024-02-23T03:25:07;8.70;99.90
40996;DHT22;26723;57.478;12.066;2024-02-23T03:28:16;8.80;99.90
40996;DHT22;26723;57.478;12.066;2024-02-23T03:31:25;8.90;99.90
40996;DHT22;26723;57.478;12.066;2024-02-23T03:34:33;8.90;99.90
40996;DHT22;26723;57.478;12.066;2024-02-23T03:37:41;8.80;99.90
40996;DHT22;26723;57.478;12.066;2024-02-23T03:40:51;8.70;99.90
40996;DHT22;26723;57.478;12.066;2024-02-23T03:43:59;8.80;99.90
40996;DHT22;26723;57.478;12.066;2024-02-23T03:47:07;8.70;99.90
40996;DHT22;26723;57.478;12.066;2024-02-23T03:50:16;8.60;99.90
40996;DHT22;26723;57.478;12.066;2024-02-23T03:53:24;8.60;99.90
40996;DHT22;26723;57.478;12.066;2024-02-23T03:56:39;8.50;99.90
40996;DHT22;26723;57.478;12.066;2024-02-23T03:59:54;8.30;99.90
40996;DHT22;26723;57.478;12.066;2024-02-23T04:03:03;8.10;99.90
40996;DHT22;26723;57.478;12.066;2024-02-23T04:06:11;7.90;99.90
40996;DHT22;26723;57.478;12.066;2024-02-23T04:09:19;7.70;99.90
40996;DHT22;26723;57.478;12.066;2024-02-23T04:12:29;7.60;99.90
40996;DHT22;26723;57.478;12.066;2024-02-23T04:15:38;7.30;99.90
40996;DHT22;26723;57.478;12.066;2024-02-23T04:18:46;7.20;99.90
40996;DHT22;26723;57.478;12.066;2024-02-23T04:21:55;7.00;99.90
40996;DHT22;26723;57.478;12.066;2024-02-23T04:25:03;6.90;99.90
40996;DHT22;26723;57.478;12.066;2024-02-23T04:28:13;6.80;99.90
40996;DHT22;26723;57.478;12.066;2024-02-23T04:31:23;6.70;99.90
40996;DHT22;26723;57.478;12.066;2024-02-23T04:34:31;6.60;99.90
40996;DHT22;26723;57.478;12.066;2024-02-23T04:37:39;6.50;99.90
40996;DHT22;26723;57.478;12.066;2024-02-23T04:40:51;6.50;99.90
40996;DHT22;26723;57.478;12.066;2024-02-23T04:44:01;6.40;99.90
40996;DHT22;26723;57.478;12.066;2024-02-23T04:47:09;6.40;99.90
40996;DHT22;26723;57.478;12.066;2024-02-23T04:50:18;6.40;99.90
40996;DHT22;26723;57.478;12.066;2024-02-23T04:53:26;6.30;99.90
40996;DHT22;26723;57.478;12.066;2024-02-23T04:56:38;6.20;99.90
40996;DHT22;26723;57.478;12.066;2024-02-23T04:59:48;6.10;99.90
40996;DHT22;26723;57.478;12.066;2024-02-23T05:02:56;6.00;99.90
40996;DHT22;26723;57.478;12.066;2024-02-23T05:06:04;5.90;99.90
40996;DHT22;26723;57.478;12.066;2024-02-23T05:09:13;5.90;99.90
40996;DHT22;26723;57.478;12.066;2024-02-23T05:12:21;5.90;99.90
40996;DHT22;26723;57.478;12.066;2024-02-23T05:15:30;5.80;99.90
40996;DHT22;26723;57.478;12.066;2024-02-23T05:18:39;5.80;99.90
40996;DHT22;26723;57.478;12.066;2024-02-23T05:21:47;5.80;99.90
40996;DHT22;26723;57.478;12.066;2024-02-23T05:24:55;5.80;99.90
40996;DHT22;26723;57.478;12.066;2024-02-23T05:28:04;5.80;99.90
40996;DHT22;26723;57.478;12.066;2024-02-23T05:31:13;5.80;99.90
40996;DHT22;26723;57.478;12.066;2024-02-23T05:34:22;5.80;99.90
40996;DHT22;26723;57.478;12.066;2024-02-23T05:37:30;5.80;99.90
40996;DHT22;26723;57.478;12.066;2024-02-23T05:40:38;5.80;99.90
40996;DHT22;26723;57.478;12.066;2024-02-23T05:43:46;5.80;99.90
40996;DHT22;26723;57.478;12.066;2024-02-23T05:46:56;5.80;99.90
40996;DHT22;26723;57.478;12.066;2024-02-23T05:50:05;5.80;99.90
40996;DHT22;26723;57.478;12.066;2024-02-23T05:53:14;5.80;99.90
40996;DHT22;26723;57.478;12.066;2024-02-23T05:56:22;5.80;99.90
40996;DHT22;26723;57.478;12.066;2024-02-23T05:59:31;5.90;99.90
40996;DHT22;26723;57.478;12.066;2024-02-23T06:02:41;5.90;99.90
40996;DHT22;26723;57.478;12.066;2024-02-23T06:05:50;6.00;99.90
40996;DHT22;26723;57.478;12.066;2024-02-23T06:09:01;6.00;99.90
40996;DHT22;26723;57.478;12.066;2024-02-23T06:12:09;6.00;99.90
40996;DHT22;26723;57.478;12.066;2024-02-23T06:15:18;6.00;99.90
40996;DHT22;26723;57.478;12.066;2024-02-23T06:18:27;6.00;99.90
40996;DHT22;26723;57.478;12.066;2024-02-23T06:21:36;6.00;99.90
40996;DHT22;26723;57.478;12.066;2024-02-23T06:24:44;5.90;99.90
40996;DHT22;26723;57.478;12.066;2024-02-23T06:27:52;5.80;99.90
40996;DHT22;26723;57.478;12.066;2024-02-23T06:31:01;5.60;99.90
40996;DHT22;26723;57.478;12.066;2024-02-23T06:34:12;5.60;99.90
40996;DHT22;26723;57.478;12.066;2024-02-23T06:37:20;5.60;99.90
40996;DHT22;26723;57.478;12.066;2024-02-23T06:40:28;5.60;99.90
40996;DHT22;26723;57.478;12.066;2024-02-23T06:43:52;5.60;99.90
40996;DHT22;26723;57.478;12.066;2024-02-23T06:47:00;5.60;99.90
40996;DHT22;26723;57.478;12.066;2024-02-23T06:50:10;5.70;99.90
40996;DHT22;26723;57.478;12.066;2024-02-23T06:53:22;5.80;99.90
40996;DHT22;26723;57.478;12.066;2024-02-23T06:56:31;5.80;99.90
40996;DHT22;26723;57.478;12.066;2024-02-23T06:59:39;5.80;99.90
40996;DHT22;26723;57.478;12.066;2024-02-23T07:02:48;5.90;99.90
40996;DHT22;26723;57.478;12.066;2024-02-23T07:05:57;5.90;99.90
40996;DHT22;26723;57.478;12.066;2024-02-23T07:09:06;5.90;99.90
40996;DHT22;26723;57.478;12.066;2024-02-23T07:12:15;5.90;99.90
40996;DHT22;26723;57.478;12.066;2024-02-23T07:15:23;5.90;99.90
40996;DHT22;26723;57.478;12.066;2024-02-23T07:18:32;5.90;99.90
40996;DHT22;26723;57.478;12.066;2024-02-23T07:21:42;6.00;99.90
40996;DHT22;26723;57.478;12.066;2024-02-23T07:24:53;6.00;99.90
40996;DHT22;26723;57.478;12.066;2024-02-23T07:28:04;5.90;99.90
40996;DHT22;26723;57.478;12.066;2024-02-23T07:31:15;6.00;99.90
40996;DHT22;26723;57.478;12.066;2024-02-23T07:34:24;6.00;99.90
40996;DHT22;26723;57.478;12.066;2024-02-23T07:37:33;5.90;99.90
40996;DHT22;26723;57.478;12.066;2024-02-23T07:40:44;5.80;99.90
40996;DHT22;26723;57.478;12.066;2024-02-23T07:43:52;5.70;99.90
40996;DHT22;26723;57.478;12.066;2024-02-23T07:47:00;5.70;99.90
40996;DHT22;26723;57.478;12.066;2024-02-23T07:50:10;5.70;99.90
40996;DHT22;26723;57.478;12.066;2024-02-23T07:53:21;5.80;99.90
40996;DHT22;26723;57.478;12.066;2024-02-23T07:56:29;5.80;99.90
40996;DHT22;26723;57.478;12.066;2024-02-23T07:59:37;6.00;99.90
40996;DHT22;26723;57.478;12.066;2024-02-23T08:02:45;6.10;99.90
40996;DHT22;26723;57.478;12.066;2024-02-23T08:05:54;6.30;99.90
40996;DHT22;26723;57.478;12.066;2024-02-23T08:09:05;6.40;99.90
40996;DHT22;26723;57.478;12.066;2024-02-23T08:12:14;6.40;99.90
40996;DHT22;26723;57.478;12.066;2024-02-23T08:15:23;6.40;99.90
40996;DHT22;26723;57.478;12.066;2024-02-23T08:18:31;6.40;99.90
40996;DHT22;26723;57.478;12.066;2024-02-23T08:21:39;6.40;99.90
40996;DHT22;26723;57.478;12.066;2024-02-23T08:24:51;6.40;99.90
40996;DHT22;26723;57.478;12.066;2024-02-23T08:28:00;6.40;99.90
40996;DHT22;26723;57.478;12.066;2024-02-23T08:31:08;6.50;99.90
40996;DHT22;26723;57.478;12.066;2024-02-23T08:34:16;6.50;99.90
40996;DHT22;26723;57.478;12.066;2024-02-23T08:37:25;6.60;99.90
40996;DHT22;26723;57.478;12.066;2024-02-23T08:40:35;6.60;99.90
40996;DHT22;26723;57.478;12.066;2024-02-23T08:43:43;6.50;99.90
40996;DHT22;26723;57.478;12.066;2024-02-23T08:46:51;6.30;99.90
40996;DHT22;26723;57.478;12.066;2024-02-23T08:49:59;6.00;99.90
40996;DHT22;26723;57.478;12.066;2024-02-23T08:53:08;5.90;99.90
40996;DHT22;26723;57.478;12.066;2024-02-23T08:56:17;5.80;99.90
40996;DHT22;26723;57.478;12.066;2024-02-23T08:59:26;6.00;99.90
40996;DHT22;26723;57.478;12.066;2024-02-23T09:02:34;6.90;99.90
40996;DHT22;26723;57.478;12.066;2024-02-23T09:05:45;6.70;99.90
40996;DHT22;26723;57.478;12.066;2024-02-23T09:08:54;7.20;99.90
40996;DHT22;26723;57.478;12.066;2024-02-23T09:12:05;9.30;99.90
40996;DHT22;26723;57.478;12.066;2024-02-23T09:15:13;12.60;99.90
40996;DHT22;26723;57.478;12.066;2024-02-23T09:18:22;11.90;99.90
40996;DHT22;26723;57.478;12.066;2024-02-23T09:21:30;9.60;99.90
40996;DHT22;26723;57.478;12.066;2024-02-23T09:24:39;8.50;99.90
40996;DHT22;26723;57.478;12.066;2024-02-23T09:27:48;8.00;99.90
40996;DHT22;26723;57.478;12.066;2024-02-23T09:30:57;7.70;99.90
40996;DHT22;26723;57.478;12.066;2024-02-23T09:34:05;7.40;99.90
40996;DHT22;26723;57.478;12.066;2024-02-23T09:37:14;7.30;99.90
40996;DHT22;26723;57.478;12.066;2024-02-23T09:40:25;7.10;99.90
40996;DHT22;26723;57.478;12.066;2024-02-23T09:43:35;7.10;99.90
40996;DHT22;26723;57.478;12.066;2024-02-23T09:46:43;7.30;99.90
40996;DHT22;26723;57.478;12.066;2024-02-23T09:49:54;7.50;99.90
40996;DHT22;26723;57.478;12.066;2024-02-23T09:53:04;7.50;99.90
40996;DHT22;26723;57.478;12.066;2024-02-23T09:56:15;7.30;99.90
40996;DHT22;26723;57.478;12.066;2024-02-23T09:59:28;7.10;99.90
40996;DHT22;26723;57.478;12.066;2024-02-23T10:02:40;7.40;99.90
40996;DHT22;26723;57.478;12.066;2024-02-23T10:05:49;7.50;99.90
40996;DHT22;26723;57.478;12.066;2024-02-23T10:08:57;7.90;99.90
40996;DHT22;26723;57.478;12.066;2024-02-23T10:12:06;8.50;99.90
40996;DHT22;26723;57.478;12.066;2024-02-23T10:15:17;9.10;99.90
40996;DHT22;26723;57.478;12.066;2024-02-23T10:18:25;9.00;99.90
40996;DHT22;26723;57.478;12.066;2024-02-23T10:21:33;8.40;99.90
40996;DHT22;26723;57.478;12.066;2024-02-23T10:24:42;7.80;99.90
40996;DHT22;26723;57.478;12.066;2024-02-23T10:27:51;7.60;99.90
40996;DHT22;26723;57.478;12.066;2024-02-23T10:31:00;7.30;99.90
40996;DHT22;26723;57.478;12.066;2024-02-23T10:34:09;7.20;99.90
40996;DHT22;26723;57.478;12.066;2024-02-23T10:37:21;7.10;99.90
40996;DHT22;26723;57.478;12.066;2024-02-23T10:40:30;7.30;99.90
40996;DHT22;26723;57.478;12.066;2024-02-23T10:43:45;7.70;99.90
40996;DHT22;26723;57.478;12.066;2024-02-23T10:46:56;8.10;99.90
40996;DHT22;26723;57.478;12.066;2024-02-23T10:50:06;8.50;99.90
40996;DHT22;26723;57.478;12.066;2024-02-23T10:53:17;8.80;99.90
40996;DHT22;26723;57.478;12.066;2024-02-23T10:56:26;8.70;99.90
40996;DHT22;26723;57.478;12.066;2024-02-23T10:59:35;8.90;99.90
40996;DHT22;26723;57.478;12.066;2024-02-23T11:02:48;8.80;99.90
40996;DHT22;26723;57.478;12.066;2024-02-23T11:05:59;8.60;99.90
40996;DHT22;26723;57.478;12.066;2024-02-23T11:09:08;8.30;99.90
40996;DHT22;26723;57.478;12.066;2024-02-23T11:12:22;8.00;99.90
40996;DHT22;26723;57.478;12.066;2024-02-23T11:15:32;7.90;99.90
40996;DHT22;26723;57.478;12.066;2024-02-23T11:18:48;7.80;99.90
40996;DHT22;26723;57.478;12.066;2024-02-23T11:21:58;7.60;99.90
40996;DHT22;26723;57.478;12.066;2024-02-23T11:25:08;7.60;99.90
40996;DHT22;26723;57.478;12.066;2024-02-23T11:28:22;8.10;99.90
40996;DHT22;26723;57.478;12.066;2024-02-23T11:31:30;8.40;99.90
40996;DHT22;26723;57.478;12.066;2024-02-23T11:34:40;8.30;99.90
40996;DHT22;26723;57.478;12.066;2024-02-23T11:37:51;8.10;99.90
40996;DHT22;26723;57.478;12.066;2024-02-23T11:41:04;8.10;99.90
40996;DHT22;26723;57.478;12.066;2024-02-23T11:44:13;8.10;99.90
40996;DHT22;26723;57.478;12.066;2024-02-23T11:47:21;8.30;99.90
40996;DHT22;26723;57.478;12.066;2024-02-23T11:50:31;8.30;99.90
40996;DHT22;26723;57.478;12.066;2024-02-23T11:53:39;8.00;99.90
40996;DHT22;26723;57.478;12.066;2024-02-23T11:56:47;7.80;99.90
40996;DHT22;26723;57.478;12.066;2024-02-23T11:59:56;7.50;99.90
40996;DHT22;26723;57.478;12.066;2024-02-23T12:03:05;7.30;99.90
40996;DHT22;26723;57.478;12.066;2024-02-23T12:06:16;7.20;99.90
40996;DHT22;26723;57.478;12.066;2024-02-23T12:09:25;7.10;99.90
40996;DHT22;26723;57.478;12.066;2024-02-23T12:12:34;7.20;99.90
40996;DHT22;26723;57.478;12.066;2024-02-23T12:15:43;7.10;99.90
40996;DHT22;26723;57.478;12.066;2024-02-23T12:18:54;7.00;99.90
40996;DHT22;26723;57.478;12.066;2024-02-23T12:22:04;7.00;99.90
40996;DHT22;26723;57.478;12.066;2024-02-23T12:25:13;6.80;99.90
40996;DHT22;26723;57.478;12.066;2024-02-23T12:28:22;6.80;99.90
40996;DHT22;26723;57.478;12.066;2024-02-23T12:31:32;6.80;99.90
40996;DHT22;26723;57.478;12.066;2024-02-23T12:34:40;6.70;99.90
40996;DHT22;26723;57.478;12.066;2024-02-23T12:37:53;6.60;99.90
40996;DHT22;26723;57.478;12.066;2024-02-23T12:41:02;6.40;99.90
40996;DHT22;26723;57.478;12.066;2024-02-23T12:44:10;6.40;99.90
40996;DHT22;26723;57.478;12.066;2024-02-23T12:47:19;6.40;99.90
40996;DHT22;26723;57.478;12.066;2024-02-23T12:50:30;6.40;99.90
40996;DHT22;26723;57.478;12.066;2024-02-23T12:53:41;6.30;99.90
40996;DHT22;26723;57.478;12.066;2024-02-23T12:56:49;6.20;99.90
40996;DHT22;26723;57.478;12.066;2024-02-23T12:59:58;6.10;99.90
40996;DHT22;26723;57.478;12.066;2024-02-23T13:03:06;6.10;99.90
40996;DHT22;26723;57.478;12.066;2024-02-23T13:06:14;6.10;99.90
40996;DHT22;26723;57.478;12.066;2024-02-23T13:09:24;6.00;99.90
40996;DHT22;26723;57.478;12.066;2024-02-23T13:12:32;6.00;99.90
40996;DHT22;26723;57.478;12.066;2024-02-23T13:15:41;6.10;99.90
40996;DHT22;26723;57.478;12.066;2024-02-23T13:18:49;6.10;99.90
40996;DHT22;26723;57.478;12.066;2024-02-23T13:21:57;6.20;99.90
40996;DHT22;26723;57.478;12.066;2024-02-23T13:25:08;6.40;99.90
40996;DHT22;26723;57.478;12.066;2024-02-23T13:28:16;6.30;99.90
40996;DHT22;26723;57.478;12.066;2024-02-23T13:31:25;6.30;99.90
40996;DHT22;26723;57.478;12.066;2024-02-23T13:34:33;6.30;99.90
40996;DHT22;26723;57.478;12.066;2024-02-23T13:37:42;6.30;99.90
40996;DHT22;26723;57.478;12.066;2024-02-23T13:40:51;6.30;99.90
40996;DHT22;26723;57.478;12.066;2024-02-23T13:44:00;6.30;99.90
40996;DHT22;26723;57.478;12.066;2024-02-23T13:47:08;6.30;99.90
40996;DHT22;26723;57.478;12.066;2024-02-23T13:50:16;6.10;99.90
40996;DHT22;26723;57.478;12.066;2024-02-23T13:53:24;6.00;99.90
40996;DHT22;26723;57.478;12.066;2024-02-23T13:56:34;6.00;99.90
40996;DHT22;26723;57.478;12.066;2024-02-23T13:59:43;6.00;99.90
40996;DHT22;26723;57.478;12.066;2024-02-23T14:02:51;6.20;99.90
40996;DHT22;26723;57.478;12.066;2024-02-23T14:05:59;6.30;99.90
40996;DHT22;26723;57.478;12.066;2024-02-23T14:09:08;6.20;99.90
40996;DHT22;26723;57.478;12.066;2024-02-23T14:12:18;6.20;99.90
40996;DHT22;26723;57.478;12.066;2024-02-23T14:15:27;6.10;99.90
40996;DHT22;26723;57.478;12.066;2024-02-23T14:18:35;6.00;99.90
40996;DHT22;26723;57.478;12.066;2024-02-23T14:21:45;6.10;99.90
40996;DHT22;26723;57.478;12.066;2024-02-23T14:24:55;6.00;99.90
40996;DHT22;26723;57.478;12.066;2024-02-23T14:28:05;6.10;99.90
40996;DHT22;26723;57.478;12.066;2024-02-23T14:31:13;6.00;99.90
40996;DHT22;26723;57.478;12.066;2024-02-23T14:34:21;6.00;99.90
40996;DHT22;26723;57.478;12.066;2024-02-23T14:37:30;6.00;99.90
40996;DHT22;26723;57.478;12.066;2024-02-23T14:40:39;5.90;99.90
40996;DHT22;26723;57.478;12.066;2024-02-23T14:43:48;5.90;99.90
40996;DHT22;26723;57.478;12.066;2024-02-23T14:46:56;5.90;99.90
40996;DHT22;26723;57.478;12.066;2024-02-23T14:50:06;5.90;99.90
40996;DHT22;26723;57.478;12.066;2024-02-23T14:53:15;6.00;99.90
40996;DHT22;26723;57.478;12.066;2024-02-23T14:56:24;6.10;99.90
40996;DHT22;26723;57.478;12.066;2024-02-23T14:59:33;6.10;99.90
40996;DHT22;26723;57.478;12.066;2024-02-23T15:02:43;6.10;99.90
40996;DHT22;26723;57.478;12.066;2024-02-23T15:05:51;5.90;99.90
40996;DHT22;26723;57.478;12.066;2024-02-23T15:09:00;5.90;99.90
40996;DHT22;26723;57.478;12.066;2024-02-23T15:12:08;5.80;99.90
40996;DHT22;26723;57.478;12.066;2024-02-23T15:15:20;5.80;99.90
40996;DHT22;26723;57.478;12.066;2024-02-23T15:18:28;5.80;99.90
40996;DHT22;26723;57.478;12.066;2024-02-23T15:21:36;5.80;99.90
40996;DHT22;26723;57.478;12.066;2024-02-23T15:24:47;5.70;99.90
40996;DHT22;26723;57.478;12.066;2024-02-23T15:27:56;5.70;99.90
40996;DHT22;26723;57.478;12.066;2024-02-23T15:31:07;5.70;99.90
40996;DHT22;26723;57.478;12.066;2024-02-23T15:34:15;5.60;99.90
40996;DHT22;26723;57.478;12.066;2024-02-23T15:37:23;5.60;99.90
40996;DHT22;26723;57.478;12.066;2024-02-23T15:40:32;5.50;99.90
40996;DHT22;26723;57.478;12.066;2024-02-23T15:43:40;5.50;99.90
40996;DHT22;26723;57.478;12.066;2024-02-23T15:46:49;5.60;99.90
40996;DHT22;26723;57.478;12.066;2024-02-23T15:49:57;5.60;99.90
40996;DHT22;26723;57.478;12.066;2024-02-23T15:53:27;5.70;99.90
40996;DHT22;26723;57.478;12.066;2024-02-23T15:56:35;5.70;99.90
40996;DHT22;26723;57.478;12.066;2024-02-23T15:59:45;5.70;99.90
40996;DHT22;26723;57.478;12.066;2024-02-23T16:03:12;5.70;99.90
40996;DHT22;26723;57.478;12.066;2024-02-23T16:06:20;5.60;99.90
40996;DHT22;26723;57.478;12.066;2024-02-23T16:09:28;5.50;99.90
40996;DHT22;26723;57.478;12.066;2024-02-23T16:12:37;5.50;99.90
40996;DHT22;26723;57.478;12.066;2024-02-23T16:15:45;5.50;99.90
40996;DHT22;26723;57.478;12.066;2024-02-23T16:18:55;5.50;99.90
40996;DHT22;26723;57.478;12.066;2024-02-23T16:22:04;5.50;99.90
40996;DHT22;26723;57.478;12.066;2024-02-23T16:25:13;5.40;99.90
40996;DHT22;26723;57.478;12.066;2024-02-23T16:28:21;5.40;99.90
40996;DHT22;26723;57.478;12.066;2024-02-23T16:31:30;5.50;99.90
40996;DHT22;26723;57.478;12.066;2024-02-23T16:34:40;5.50;99.90
40996;DHT22;26723;57.478;12.066;2024-02-23T16:37:48;5.60;99.90
40996;DHT22;26723;57.478;12.066;2024-02-23T16:40:58;5.50;99.90
40996;DHT22;26723;57.478;12.066;2024-02-23T16:44:07;5.50;99.90
40996;DHT22;26723;57.478;12.066;2024-02-23T16:47:17;5.60;99.90
40996;DHT22;26723;57.478;12.066;2024-02-23T16:50:26;5.60;99.90
40996;DHT22;26723;57.478;12.066;2024-02-23T16:53:35;5.60;99.90
40996;DHT22;26723;57.478;12.066;2024-02-23T16:56:43;5.60;99.90
40996;DHT22;26723;57.478;12.066;2024-02-23T16:59:52;5.60;99.90
40996;DHT22;26723;57.478;12.066;2024-02-23T17:03:00;5.60;99.90
40996;DHT22;26723;57.478;12.066;2024-02-23T17:06:10;5.60;99.90
40996;DHT22;26723;57.478;12.066;2024-02-23T17:09:18;5.60;99.90
40996;DHT22;26723;57.478;12.066;2024-02-23T17:12:27;5.60;99.90
40996;DHT22;26723;57.478;12.066;2024-02-23T17:15:36;5.60;99.90
40996;DHT22;26723;57.478;12.066;2024-02-23T17:18:44;5.60;99.90
40996;DHT22;26723;57.478;12.066;2024-02-23T17:21:54;5.70;99.90
40996;DHT22;26723;57.478;12.066;2024-02-23T17:25:02;5.70;99.90
40996;DHT22;26723;57.478;12.066;2024-02-23T17:28:12;5.70;99.90
40996;DHT22;26723;57.478;12.066;2024-02-23T17:31:20;5.70;99.90
40996;DHT22;26723;57.478;12.066;2024-02-23T17:34:29;5.70;99.90
40996;DHT22;26723;57.478;12.066;2024-02-23T17:37:39;5.70;99.90
40996;DHT22;26723;57.478;12.066;2024-02-23T17:40:47;5.70;99.90
40996;DHT22;26723;57.478;12.066;2024-02-23T17:43:59;5.70;99.90
40996;DHT22;26723;57.478;12.066;2024-02-23T17:47:08;5.70;99.90
40996;DHT22;26723;57.478;12.066;2024-02-23T17:50:16;5.70;99.90
40996;DHT22;26723;57.478;12.066;2024-02-23T17:53:26;5.80;99.90
40996;DHT22;26723;57.478;12.066;2024-02-23T17:56:34;5.80;99.90
40996;DHT22;26723;57.478;12.066;2024-02-23T17:59:42;5.90;99.90
40996;DHT22;26723;57.478;12.066;2024-02-23T18:02:50;5.90;99.90
40996;DHT22;26723;57.478;12.066;2024-02-23T18:05:59;5.90;99.90
40996;DHT22;26723;57.478;12.066;2024-02-23T18:09:08;6.00;99.90
40996;DHT22;26723;57.478;12.066;2024-02-23T18:12:17;5.90;99.90
40996;DHT22;26723;57.478;12.066;2024-02-23T18:15:25;6.00;99.90
40996;DHT22;26723;57.478;12.066;2024-02-23T18:18:33;6.00;99.90
40996;DHT22;26723;57.478;12.066;2024-02-23T18:21:42;6.00;99.90
40996;DHT22;26723;57.478;12.066;2024-02-23T18:24:51;6.00;99.90
40996;DHT22;26723;57.478;12.066;2024-02-23T18:28:00;6.00;99.90
40996;DHT22;26723;57.478;12.066;2024-02-23T18:31:09;6.00;99.90
40996;DHT22;26723;57.478;12.066;2024-02-23T18:34:17;6.10;99.90
40996;DHT22;26723;57.478;12.066;2024-02-23T18:37:25;6.10;99.90
40996;DHT22;26723;57.478;12.066;2024-02-23T18:40:35;6.10;99.90
40996;DHT22;26723;57.478;12.066;2024-02-23T18:43:44;6.10;99.90
40996;DHT22;26723;57.478;12.066;2024-02-23T18:46:55;6.10;99.90
40996;DHT22;26723;57.478;12.066;2024-02-23T18:50:05;6.10;99.90
40996;DHT22;26723;57.478;12.066;2024-02-23T18:53:14;6.10;99.90
40996;DHT22;26723;57.478;12.066;2024-02-23T18:56:24;6.10;99.90
40996;DHT22;26723;57.478;12.066;2024-02-23T18:59:36;6.20;99.90
40996;DHT22;26723;57.478;12.066;2024-02-23T19:02:45;6.10;99.90
40996;DHT22;26723;57.478;12.066;2024-02-23T19:05:53;6.10;99.90
40996;DHT22;26723;57.478;12.066;2024-02-23T19:09:02;6.00;99.90
40996;DHT22;26723;57.478;12.066;2024-02-23T19:12:13;6.10;99.90
40996;DHT22;26723;57.478;12.066;2024-02-23T19:15:22;6.10;99.90
40996;DHT22;26723;57.478;12.066;2024-02-23T19:18:30;6.10;99.90
40996;DHT22;26723;57.478;12.066;2024-02-23T19:21:40;6.20;99.90
40996;DHT22;26723;57.478;12.066;2024-02-23T19:24:48;6.30;99.90
40996;DHT22;26723;57.478;12.066;2024-02-23T19:27:58;6.30;99.90
40996;DHT22;26723;57.478;12.066;2024-02-23T19:31:07;6.30;99.90
40996;DHT22;26723;57.478;12.066;2024-02-23T19:34:15;6.40;99.90
40996;DHT22;26723;57.478;12.066;2024-02-23T19:37:24;6.40;99.90
40996;DHT22;26723;57.478;12.066;2024-02-23T19:40:32;6.40;99.90
40996;DHT22;26723;57.478;12.066;2024-02-23T19:43:42;6.40;99.90
40996;DHT22;26723;57.478;12.066;2024-02-23T19:46:50;6.50;99.90
40996;DHT22;26723;57.478;12.066;2024-02-23T19:49:58;6.50;99.90
40996;DHT22;26723;57.478;12.066;2024-02-23T19:53:07;6.50;99.90